sensor_id;sensor_type;location;lat;lon;timestamp;P1;durP1;ratioP1;P2;durP2;ratioP2
20014;SDS011;61787;42.022;23.078;2023-07-31T00:00:50;5.65;;;3.92;;
20014;SDS011;61787;42.022;23.078;2023-07-31T00:01:52;6.85;;;4.07;;
20014;SDS011;61787;42.022;23.078;2023-07-31T00:02:54;8.35;;;4.20;;
20014;SDS011;61787;42.022;23.078;2023-07-31T00:03:57;5.50;;;3.67;;
20014;SDS011;61787;42.022;23.078;2023-07-31T00:04:58;4.32;;;3.80;;
20014;SDS011;61787;42.022;23.078;2023-07-31T00:06:00;5.57;;;3.55;;
20014;SDS011;61787;42.022;23.078;2023-07-31T00:07:02;4.10;;;3.33;;
20014;SDS011;61787;42.022;23.078;2023-07-31T00:08:05;4.00;;;3.40;;
20014;SDS011;61787;42.022;23.078;2023-07-31T00:09:07;3.95;;;3.22;;
20014;SDS011;61787;42.022;23.078;2023-07-31T00:10:09;4.18;;;3.15;;
20014;SDS011;61787;42.022;23.078;2023-07-31T00:11:11;4.68;;;3.42;;
20014;SDS011;61787;42.022;23.078;2023-07-31T00:12:12;4.97;;;3.42;;
20014;SDS011;61787;42.022;23.078;2023-07-31T00:13:14;5.50;;;3.58;;
20014;SDS011;61787;42.022;23.078;2023-07-31T00:14:16;4.18;;;3.30;;
20014;SDS011;61787;42.022;23.078;2023-07-31T00:15:17;5.80;;;3.50;;
20014;SDS011;61787;42.022;23.078;2023-07-31T00:16:19;3.92;;;3.45;;
20014;SDS011;61787;42.022;23.078;2023-07-31T00:17:21;4.93;;;3.55;;
20014;SDS011;61787;42.022;23.078;2023-07-31T00:18:22;5.90;;;3.33;;
20014;SDS011;61787;42.022;23.078;2023-07-31T00:19:24;4.60;;;3.40;;
20014;SDS011;61787;42.022;23.078;2023-07-31T00:20:26;5.22;;;3.47;;
20014;SDS011;61787;42.022;23.078;2023-07-31T00:21:27;6.18;;;3.53;;
20014;SDS011;61787;42.022;23.078;2023-07-31T00:22:29;5.28;;;3.90;;
20014;SDS011;61787;42.022;23.078;2023-07-31T00:23:30;6.13;;;3.63;;
20014;SDS011;61787;42.022;23.078;2023-07-31T00:24:32;7.07;;;3.75;;
20014;SDS011;61787;42.022;23.078;2023-07-31T00:25:34;4.60;;;4.00;;
20014;SDS011;61787;42.022;23.078;2023-07-31T00:26:35;6.65;;;4.28;;
20014;SDS011;61787;42.022;23.078;2023-07-31T00:27:37;8.07;;;4.30;;
20014;SDS011;61787;42.022;23.078;2023-07-31T00:28:39;6.93;;;4.05;;
20014;SDS011;61787;42.022;23.078;2023-07-31T00:29:41;4.07;;;3.67;;
20014;SDS011;61787;42.022;23.078;2023-07-31T00:30:42;4.35;;;3.90;;
20014;SDS011;61787;42.022;23.078;2023-07-31T00:31:44;4.07;;;3.67;;
20014;SDS011;61787;42.022;23.078;2023-07-31T00:32:46;4.55;;;3.47;;
20014;SDS011;61787;42.022;23.078;2023-07-31T00:33:47;8.85;;;3.42;;
20014;SDS011;61787;42.022;23.078;2023-07-31T00:34:49;4.00;;;3.60;;
20014;SDS011;61787;42.022;23.078;2023-07-31T00:35:51;5.25;;;3.45;;
20014;SDS011;61787;42.022;23.078;2023-07-31T00:36:52;4.15;;;3.78;;
20014;SDS011;61787;42.022;23.078;2023-07-31T00:37:55;3.88;;;3.58;;
20014;SDS011;61787;42.022;23.078;2023-07-31T00:38:57;5.03;;;3.70;;
20014;SDS011;61787;42.022;23.078;2023-07-31T00:39:59;4.78;;;3.85;;
20014;SDS011;61787;42.022;23.078;2023-07-31T00:41:01;5.25;;;4.07;;
20014;SDS011;61787;42.022;23.078;2023-07-31T00:42:03;4.97;;;3.80;;
20014;SDS011;61787;42.022;23.078;2023-07-31T00:43:05;5.32;;;4.10;;
20014;SDS011;61787;42.022;23.078;2023-07-31T00:44:07;4.32;;;3.97;;
20014;SDS011;61787;42.022;23.078;2023-07-31T00:45:08;5.93;;;4.18;;
20014;SDS011;61787;42.022;23.078;2023-07-31T00:46:10;3.83;;;3.53;;
20014;SDS011;61787;42.022;23.078;2023-07-31T00:47:12;6.68;;;4.50;;
20014;SDS011;61787;42.022;23.078;2023-07-31T00:48:14;5.93;;;3.97;;
20014;SDS011;61787;42.022;23.078;2023-07-31T00:49:15;4.50;;;4.10;;
20014;SDS011;61787;42.022;23.078;2023-07-31T00:50:17;5.00;;;4.07;;
20014;SDS011;61787;42.022;23.078;2023-07-31T00:51:19;5.65;;;4.00;;
20014;SDS011;61787;42.022;23.078;2023-07-31T00:52:20;5.68;;;4.22;;
20014;SDS011;61787;42.022;23.078;2023-07-31T00:53:22;5.15;;;4.40;;
20014;SDS011;61787;42.022;23.078;2023-07-31T00:54:26;4.80;;;4.28;;
20014;SDS011;61787;42.022;23.078;2023-07-31T00:55:27;4.35;;;3.95;;
20014;SDS011;61787;42.022;23.078;2023-07-31T00:56:29;5.18;;;4.40;;
20014;SDS011;61787;42.022;23.078;2023-07-31T00:57:32;7.63;;;4.82;;
20014;SDS011;61787;42.022;23.078;2023-07-31T00:58:35;5.90;;;5.07;;
20014;SDS011;61787;42.022;23.078;2023-07-31T00:59:37;5.55;;;4.53;;
20014;SDS011;61787;42.022;23.078;2023-07-31T01:00:39;6.05;;;4.55;;
20014;SDS011;61787;42.022;23.078;2023-07-31T01:01:41;5.25;;;4.55;;
20014;SDS011;61787;42.022;23.078;2023-07-31T01:02:42;5.55;;;4.90;;
20014;SDS011;61787;42.022;23.078;2023-07-31T01:03:45;8.80;;;4.70;;
20014;SDS011;61787;42.022;23.078;2023-07-31T01:04:46;5.18;;;4.60;;
20014;SDS011;61787;42.022;23.078;2023-07-31T01:11:19;6.70;;;4.90;;
20014;SDS011;61787;42.022;23.078;2023-07-31T01:12:26;7.85;;;4.72;;
20014;SDS011;61787;42.022;23.078;2023-07-31T01:13:29;6.95;;;4.88;;
20014;SDS011;61787;42.022;23.078;2023-07-31T01:14:31;8.00;;;4.85;;
20014;SDS011;61787;42.022;23.078;2023-07-31T01:15:32;8.85;;;5.65;;
20014;SDS011;61787;42.022;23.078;2023-07-31T01:16:34;6.70;;;4.88;;
20014;SDS011;61787;42.022;23.078;2023-07-31T01:17:38;6.85;;;4.97;;
20014;SDS011;61787;42.022;23.078;2023-07-31T01:18:41;8.75;;;5.50;;
20014;SDS011;61787;42.022;23.078;2023-07-31T01:19:42;8.93;;;5.40;;
20014;SDS011;61787;42.022;23.078;2023-07-31T01:20:44;6.53;;;4.63;;
20014;SDS011;61787;42.022;23.078;2023-07-31T01:22:03;6.30;;;5.03;;
20014;SDS011;61787;42.022;23.078;2023-07-31T01:23:51;8.40;;;5.20;;
20014;SDS011;61787;42.022;23.078;2023-07-31T01:26:25;8.32;;;5.85;;
20014;SDS011;61787;42.022;23.078;2023-07-31T01:27:33;6.43;;;5.10;;
20014;SDS011;61787;42.022;23.078;2023-07-31T01:31:18;6.95;;;5.15;;
20014;SDS011;61787;42.022;23.078;2023-07-31T01:32:24;7.47;;;4.78;;
20014;SDS011;61787;42.022;23.078;2023-07-31T01:33:29;9.18;;;5.10;;
20014;SDS011;61787;42.022;23.078;2023-07-31T01:34:31;6.35;;;5.13;;
20014;SDS011;61787;42.022;23.078;2023-07-31T01:35:34;5.63;;;4.97;;
20014;SDS011;61787;42.022;23.078;2023-07-31T01:36:36;5.72;;;5.05;;
20014;SDS011;61787;42.022;23.078;2023-07-31T01:37:38;5.75;;;4.80;;
20014;SDS011;61787;42.022;23.078;2023-07-31T01:38:40;5.82;;;5.22;;
20014;SDS011;61787;42.022;23.078;2023-07-31T01:39:41;4.93;;;4.28;;
20014;SDS011;61787;42.022;23.078;2023-07-31T01:40:43;4.93;;;4.50;;
20014;SDS011;61787;42.022;23.078;2023-07-31T01:41:44;5.93;;;5.30;;
20014;SDS011;61787;42.022;23.078;2023-07-31T01:42:46;5.68;;;5.10;;
20014;SDS011;61787;42.022;23.078;2023-07-31T01:43:48;5.75;;;4.75;;
20014;SDS011;61787;42.022;23.078;2023-07-31T01:44:50;9.60;;;4.95;;
20014;SDS011;61787;42.022;23.078;2023-07-31T01:45:51;7.78;;;5.60;;
20014;SDS011;61787;42.022;23.078;2023-07-31T01:46:53;6.05;;;5.20;;
20014;SDS011;61787;42.022;23.078;2023-07-31T01:47:55;5.25;;;4.75;;
20014;SDS011;61787;42.022;23.078;2023-07-31T01:48:56;7.38;;;5.53;;
20014;SDS011;61787;42.022;23.078;2023-07-31T01:49:58;6.93;;;5.32;;
20014;SDS011;61787;42.022;23.078;2023-07-31T01:51:00;8.25;;;5.25;;
20014;SDS011;61787;42.022;23.078;2023-07-31T01:52:02;6.53;;;5.03;;
20014;SDS011;61787;42.022;23.078;2023-07-31T01:53:04;6.93;;;5.38;;
20014;SDS011;61787;42.022;23.078;2023-07-31T01:54:05;8.48;;;4.85;;
20014;SDS011;61787;42.022;23.078;2023-07-31T01:55:07;8.38;;;5.57;;
20014;SDS011;61787;42.022;23.078;2023-07-31T01:56:09;10.27;;;5.55;;
20014;SDS011;61787;42.022;23.078;2023-07-31T01:57:10;7.60;;;5.68;;
20014;SDS011;61787;42.022;23.078;2023-07-31T01:58:12;8.18;;;5.57;;
20014;SDS011;61787;42.022;23.078;2023-07-31T01:59:14;8.32;;;5.28;;
20014;SDS011;61787;42.022;23.078;2023-07-31T02:00:15;5.82;;;5.13;;
20014;SDS011;61787;42.022;23.078;2023-07-31T02:01:17;8.05;;;5.15;;
20014;SDS011;61787;42.022;23.078;2023-07-31T02:02:19;6.50;;;5.22;;
20014;SDS011;61787;42.022;23.078;2023-07-31T02:03:21;5.50;;;5.00;;
20014;SDS011;61787;42.022;23.078;2023-07-31T02:04:23;5.63;;;5.05;;
20014;SDS011;61787;42.022;23.078;2023-07-31T02:05:25;5.55;;;4.72;;
20014;SDS011;61787;42.022;23.078;2023-07-31T02:06:26;5.90;;;4.80;;
20014;SDS011;61787;42.022;23.078;2023-07-31T02:07:28;6.00;;;4.55;;
20014;SDS011;61787;42.022;23.078;2023-07-31T02:08:29;5.15;;;4.65;;
20014;SDS011;61787;42.022;23.078;2023-07-31T02:09:31;7.15;;;4.82;;
20014;SDS011;61787;42.022;23.078;2023-07-31T02:10:33;7.43;;;5.15;;
20014;SDS011;61787;42.022;23.078;2023-07-31T02:11:34;4.78;;;4.20;;
20014;SDS011;61787;42.022;23.078;2023-07-31T02:12:36;5.43;;;4.25;;
20014;SDS011;61787;42.022;23.078;2023-07-31T02:13:38;6.40;;;4.50;;
20014;SDS011;61787;42.022;23.078;2023-07-31T02:14:40;5.30;;;4.70;;
20014;SDS011;61787;42.022;23.078;2023-07-31T02:15:42;5.85;;;4.32;;
20014;SDS011;61787;42.022;23.078;2023-07-31T02:16:43;5.50;;;4.43;;
20014;SDS011;61787;42.022;23.078;2023-07-31T02:17:45;5.22;;;4.72;;
20014;SDS011;61787;42.022;23.078;2023-07-31T02:18:47;5.07;;;4.57;;
20014;SDS011;61787;42.022;23.078;2023-07-31T02:19:48;5.22;;;4.28;;
20014;SDS011;61787;42.022;23.078;2023-07-31T02:20:50;5.88;;;4.78;;
20014;SDS011;61787;42.022;23.078;2023-07-31T02:21:52;7.85;;;4.55;;
20014;SDS011;61787;42.022;23.078;2023-07-31T02:22:54;6.30;;;5.50;;
20014;SDS011;61787;42.022;23.078;2023-07-31T02:23:55;6.57;;;5.38;;
20014;SDS011;61787;42.022;23.078;2023-07-31T02:24:57;7.18;;;5.30;;
20014;SDS011;61787;42.022;23.078;2023-07-31T02:25:59;5.75;;;5.18;;
20014;SDS011;61787;42.022;23.078;2023-07-31T02:27:03;6.78;;;5.63;;
20014;SDS011;61787;42.022;23.078;2023-07-31T02:28:05;5.47;;;4.93;;
20014;SDS011;61787;42.022;23.078;2023-07-31T02:29:07;5.63;;;5.13;;
20014;SDS011;61787;42.022;23.078;2023-07-31T02:30:09;11.23;;;5.00;;
20014;SDS011;61787;42.022;23.078;2023-07-31T02:31:12;7.88;;;5.53;;
20014;SDS011;61787;42.022;23.078;2023-07-31T02:32:13;5.63;;;5.10;;
20014;SDS011;61787;42.022;23.078;2023-07-31T02:33:15;5.20;;;4.70;;
20014;SDS011;61787;42.022;23.078;2023-07-31T02:34:17;5.47;;;4.97;;
20014;SDS011;61787;42.022;23.078;2023-07-31T02:35:19;5.25;;;4.85;;
20014;SDS011;61787;42.022;23.078;2023-07-31T02:36:21;5.82;;;5.20;;
20014;SDS011;61787;42.022;23.078;2023-07-31T02:37:22;6.30;;;5.65;;
20014;SDS011;61787;42.022;23.078;2023-07-31T02:38:24;6.63;;;5.50;;
20014;SDS011;61787;42.022;23.078;2023-07-31T02:39:26;7.03;;;4.80;;
20014;SDS011;61787;42.022;23.078;2023-07-31T02:40:28;5.75;;;5.07;;
20014;SDS011;61787;42.022;23.078;2023-07-31T02:41:29;6.82;;;5.18;;
20014;SDS011;61787;42.022;23.078;2023-07-31T02:42:31;6.07;;;5.07;;
20014;SDS011;61787;42.022;23.078;2023-07-31T02:43:33;8.50;;;5.30;;
20014;SDS011;61787;42.022;23.078;2023-07-31T02:44:34;8.18;;;5.25;;
20014;SDS011;61787;42.022;23.078;2023-07-31T02:45:36;6.65;;;5.25;;
20014;SDS011;61787;42.022;23.078;2023-07-31T02:46:38;6.60;;;5.35;;
20014;SDS011;61787;42.022;23.078;2023-07-31T02:47:40;5.32;;;4.82;;
20014;SDS011;61787;42.022;23.078;2023-07-31T02:48:41;6.85;;;5.50;;
20014;SDS011;61787;42.022;23.078;2023-07-31T02:49:43;7.75;;;5.68;;
20014;SDS011;61787;42.022;23.078;2023-07-31T02:50:45;7.68;;;6.30;;
20014;SDS011;61787;42.022;23.078;2023-07-31T02:51:48;6.65;;;5.43;;
20014;SDS011;61787;42.022;23.078;2023-07-31T02:52:50;6.00;;;5.40;;
20014;SDS011;61787;42.022;23.078;2023-07-31T02:53:51;6.63;;;5.80;;
20014;SDS011;61787;42.022;23.078;2023-07-31T02:54:53;8.15;;;6.07;;
20014;SDS011;61787;42.022;23.078;2023-07-31T02:55:55;7.82;;;6.32;;
20014;SDS011;61787;42.022;23.078;2023-07-31T02:56:56;12.93;;;7.03;;
20014;SDS011;61787;42.022;23.078;2023-07-31T02:57:58;8.90;;;6.90;;
20014;SDS011;61787;42.022;23.078;2023-07-31T02:59:00;9.27;;;7.10;;
20014;SDS011;61787;42.022;23.078;2023-07-31T03:00:01;9.60;;;7.55;;
20014;SDS011;61787;42.022;23.078;2023-07-31T03:01:06;12.13;;;7.60;;
20014;SDS011;61787;42.022;23.078;2023-07-31T03:02:08;8.60;;;7.68;;
20014;SDS011;61787;42.022;23.078;2023-07-31T03:03:10;10.93;;;7.35;;
20014;SDS011;61787;42.022;23.078;2023-07-31T03:04:12;10.23;;;7.20;;
20014;SDS011;61787;42.022;23.078;2023-07-31T03:05:14;9.63;;;7.50;;
20014;SDS011;61787;42.022;23.078;2023-07-31T03:06:15;10.13;;;7.78;;
20014;SDS011;61787;42.022;23.078;2023-07-31T03:07:17;8.48;;;7.57;;
20014;SDS011;61787;42.022;23.078;2023-07-31T03:08:19;10.45;;;7.75;;
20014;SDS011;61787;42.022;23.078;2023-07-31T03:09:20;9.45;;;7.70;;
20014;SDS011;61787;42.022;23.078;2023-07-31T03:10:22;12.73;;;7.65;;
20014;SDS011;61787;42.022;23.078;2023-07-31T03:11:25;8.20;;;7.40;;
20014;SDS011;61787;42.022;23.078;2023-07-31T03:12:27;10.00;;;7.35;;
20014;SDS011;61787;42.022;23.078;2023-07-31T03:13:28;10.07;;;7.05;;
20014;SDS011;61787;42.022;23.078;2023-07-31T03:14:30;9.38;;;7.57;;
20014;SDS011;61787;42.022;23.078;2023-07-31T03:15:32;10.93;;;6.82;;
20014;SDS011;61787;42.022;23.078;2023-07-31T03:16:33;9.02;;;7.03;;
20014;SDS011;61787;42.022;23.078;2023-07-31T03:17:35;13.68;;;7.57;;
20014;SDS011;61787;42.022;23.078;2023-07-31T03:18:37;9.43;;;7.40;;
20014;SDS011;61787;42.022;23.078;2023-07-31T03:19:38;8.88;;;7.90;;
20014;SDS011;61787;42.022;23.078;2023-07-31T03:20:43;11.45;;;7.43;;
20014;SDS011;61787;42.022;23.078;2023-07-31T03:21:45;10.65;;;8.02;;
20014;SDS011;61787;42.022;23.078;2023-07-31T03:22:47;10.30;;;7.03;;
20014;SDS011;61787;42.022;23.078;2023-07-31T03:23:48;9.60;;;7.05;;
20014;SDS011;61787;42.022;23.078;2023-07-31T03:24:50;10.77;;;7.72;;
20014;SDS011;61787;42.022;23.078;2023-07-31T03:25:55;9.73;;;7.38;;
20014;SDS011;61787;42.022;23.078;2023-07-31T03:26:58;8.88;;;7.35;;
20014;SDS011;61787;42.022;23.078;2023-07-31T03:28:00;8.18;;;6.53;;
20014;SDS011;61787;42.022;23.078;2023-07-31T03:29:02;13.60;;;7.18;;
20014;SDS011;61787;42.022;23.078;2023-07-31T03:30:03;8.75;;;6.90;;
20014;SDS011;61787;42.022;23.078;2023-07-31T03:31:05;10.30;;;7.25;;
20014;SDS011;61787;42.022;23.078;2023-07-31T03:32:07;11.13;;;7.50;;
20014;SDS011;61787;42.022;23.078;2023-07-31T03:33:09;9.25;;;7.45;;
20014;SDS011;61787;42.022;23.078;2023-07-31T03:34:10;8.68;;;7.35;;
20014;SDS011;61787;42.022;23.078;2023-07-31T03:35:12;9.15;;;7.13;;
20014;SDS011;61787;42.022;23.078;2023-07-31T03:36:13;8.55;;;7.65;;
20014;SDS011;61787;42.022;23.078;2023-07-31T03:37:15;8.27;;;7.35;;
20014;SDS011;61787;42.022;23.078;2023-07-31T03:38:17;9.25;;;6.88;;
20014;SDS011;61787;42.022;23.078;2023-07-31T03:39:18;9.40;;;7.10;;
20014;SDS011;61787;42.022;23.078;2023-07-31T03:40:20;8.60;;;7.38;;
20014;SDS011;61787;42.022;23.078;2023-07-31T03:41:22;11.48;;;7.70;;
20014;SDS011;61787;42.022;23.078;2023-07-31T03:42:23;12.10;;;8.10;;
20014;SDS011;61787;42.022;23.078;2023-07-31T03:43:25;10.10;;;7.93;;
20014;SDS011;61787;42.022;23.078;2023-07-31T03:44:27;9.85;;;8.40;;
20014;SDS011;61787;42.022;23.078;2023-07-31T03:45:28;9.63;;;8.60;;
20014;SDS011;61787;42.022;23.078;2023-07-31T03:46:30;13.23;;;9.38;;
20014;SDS011;61787;42.022;23.078;2023-07-31T03:47:32;10.68;;;9.02;;
20014;SDS011;61787;42.022;23.078;2023-07-31T03:48:33;11.48;;;9.75;;
20014;SDS011;61787;42.022;23.078;2023-07-31T03:49:35;12.00;;;9.25;;
20014;SDS011;61787;42.022;23.078;2023-07-31T03:50:37;11.82;;;9.57;;
20014;SDS011;61787;42.022;23.078;2023-07-31T03:51:38;12.60;;;10.55;;
20014;SDS011;61787;42.022;23.078;2023-07-31T03:52:41;12.77;;;9.60;;
20014;SDS011;61787;42.022;23.078;2023-07-31T03:53:43;12.65;;;9.15;;
20014;SDS011;61787;42.022;23.078;2023-07-31T03:54:45;10.80;;;9.13;;
20014;SDS011;61787;42.022;23.078;2023-07-31T03:55:47;10.23;;;8.85;;
20014;SDS011;61787;42.022;23.078;2023-07-31T03:56:49;9.88;;;8.88;;
20014;SDS011;61787;42.022;23.078;2023-07-31T03:57:50;11.48;;;8.73;;
20014;SDS011;61787;42.022;23.078;2023-07-31T03:58:52;11.32;;;9.18;;
20014;SDS011;61787;42.022;23.078;2023-07-31T03:59:54;9.57;;;8.68;;
20014;SDS011;61787;42.022;23.078;2023-07-31T04:00:55;10.20;;;8.73;;
20014;SDS011;61787;42.022;23.078;2023-07-31T04:01:57;10.13;;;8.60;;
20014;SDS011;61787;42.022;23.078;2023-07-31T04:02:59;10.60;;;8.95;;
20014;SDS011;61787;42.022;23.078;2023-07-31T04:04:00;9.73;;;8.73;;
20014;SDS011;61787;42.022;23.078;2023-07-31T04:05:02;10.20;;;9.05;;
20014;SDS011;61787;42.022;23.078;2023-07-31T04:06:04;9.38;;;8.32;;
20014;SDS011;61787;42.022;23.078;2023-07-31T04:07:06;9.70;;;7.82;;
20014;SDS011;61787;42.022;23.078;2023-07-31T04:08:07;10.38;;;7.85;;
20014;SDS011;61787;42.022;23.078;2023-07-31T04:09:09;10.85;;;7.68;;
20014;SDS011;61787;42.022;23.078;2023-07-31T04:10:10;9.02;;;7.82;;
20014;SDS011;61787;42.022;23.078;2023-07-31T04:11:14;10.38;;;8.65;;
20014;SDS011;61787;42.022;23.078;2023-07-31T04:12:15;11.98;;;8.80;;
20014;SDS011;61787;42.022;23.078;2023-07-31T04:13:17;9.65;;;7.47;;
20014;SDS011;61787;42.022;23.078;2023-07-31T04:14:19;12.75;;;8.05;;
20014;SDS011;61787;42.022;23.078;2023-07-31T04:15:20;8.77;;;7.63;;
20014;SDS011;61787;42.022;23.078;2023-07-31T04:16:22;12.20;;;7.82;;
20014;SDS011;61787;42.022;23.078;2023-07-31T04:17:23;8.90;;;7.75;;
20014;SDS011;61787;42.022;23.078;2023-07-31T04:18:25;9.68;;;7.75;;
20014;SDS011;61787;42.022;23.078;2023-07-31T04:19:27;8.20;;;7.40;;
20014;SDS011;61787;42.022;23.078;2023-07-31T04:20:29;11.10;;;7.55;;
20014;SDS011;61787;42.022;23.078;2023-07-31T04:21:31;15.15;;;7.68;;
20014;SDS011;61787;42.022;23.078;2023-07-31T04:22:32;12.57;;;8.40;;
20014;SDS011;61787;42.022;23.078;2023-07-31T04:23:34;10.50;;;8.43;;
20014;SDS011;61787;42.022;23.078;2023-07-31T04:24:35;11.07;;;9.02;;
20014;SDS011;61787;42.022;23.078;2023-07-31T04:25:37;9.75;;;8.02;;
20014;SDS011;61787;42.022;23.078;2023-07-31T04:26:39;10.25;;;8.43;;
20014;SDS011;61787;42.022;23.078;2023-07-31T04:27:41;11.85;;;8.93;;
20014;SDS011;61787;42.022;23.078;2023-07-31T04:28:42;10.50;;;8.63;;
20014;SDS011;61787;42.022;23.078;2023-07-31T04:29:44;10.38;;;8.15;;
20014;SDS011;61787;42.022;23.078;2023-07-31T04:30:48;10.93;;;8.68;;
20014;SDS011;61787;42.022;23.078;2023-07-31T04:31:51;11.30;;;9.40;;
20014;SDS011;61787;42.022;23.078;2023-07-31T04:32:52;12.23;;;8.85;;
20014;SDS011;61787;42.022;23.078;2023-07-31T04:33:54;9.70;;;8.55;;
20014;SDS011;61787;42.022;23.078;2023-07-31T04:34:56;11.15;;;9.15;;
20014;SDS011;61787;42.022;23.078;2023-07-31T04:35:58;9.55;;;8.55;;
20014;SDS011;61787;42.022;23.078;2023-07-31T04:37:00;10.18;;;8.45;;
20014;SDS011;61787;42.022;23.078;2023-07-31T04:38:02;12.82;;;9.60;;
20014;SDS011;61787;42.022;23.078;2023-07-31T04:39:04;10.77;;;9.00;;
20014;SDS011;61787;42.022;23.078;2023-07-31T04:40:05;10.88;;;9.10;;
20014;SDS011;61787;42.022;23.078;2023-07-31T04:41:07;14.15;;;9.43;;
20014;SDS011;61787;42.022;23.078;2023-07-31T04:42:09;13.52;;;9.13;;
20014;SDS011;61787;42.022;23.078;2023-07-31T04:43:11;12.82;;;8.98;;
20014;SDS011;61787;42.022;23.078;2023-07-31T04:44:12;11.55;;;8.43;;
20014;SDS011;61787;42.022;23.078;2023-07-31T04:45:14;11.30;;;8.50;;
20014;SDS011;61787;42.022;23.078;2023-07-31T04:46:16;27.70;;;10.38;;
20014;SDS011;61787;42.022;23.078;2023-07-31T04:47:18;9.27;;;8.35;;
20014;SDS011;61787;42.022;23.078;2023-07-31T04:48:20;22.70;;;10.40;;
20014;SDS011;61787;42.022;23.078;2023-07-31T04:49:21;11.50;;;8.68;;
20014;SDS011;61787;42.022;23.078;2023-07-31T04:50:23;15.38;;;9.45;;
20014;SDS011;61787;42.022;23.078;2023-07-31T04:51:25;12.82;;;9.38;;
20014;SDS011;61787;42.022;23.078;2023-07-31T04:52:26;10.90;;;8.65;;
20014;SDS011;61787;42.022;23.078;2023-07-31T04:53:28;11.73;;;9.27;;
20014;SDS011;61787;42.022;23.078;2023-07-31T04:54:29;13.30;;;9.05;;
20014;SDS011;61787;42.022;23.078;2023-07-31T04:55:31;11.35;;;9.32;;
20014;SDS011;61787;42.022;23.078;2023-07-31T04:56:33;10.57;;;8.77;;
20014;SDS011;61787;42.022;23.078;2023-07-31T04:57:35;9.68;;;8.68;;
20014;SDS011;61787;42.022;23.078;2023-07-31T04:58:36;10.65;;;8.80;;
20014;SDS011;61787;42.022;23.078;2023-07-31T04:59:38;10.70;;;8.93;;
20014;SDS011;61787;42.022;23.078;2023-07-31T05:00:39;10.25;;;9.18;;
20014;SDS011;61787;42.022;23.078;2023-07-31T05:01:41;9.88;;;8.65;;
20014;SDS011;61787;42.022;23.078;2023-07-31T05:02:44;16.63;;;9.57;;
20014;SDS011;61787;42.022;23.078;2023-07-31T05:03:46;10.55;;;9.45;;
20014;SDS011;61787;42.022;23.078;2023-07-31T05:04:47;9.93;;;8.93;;
20014;SDS011;61787;42.022;23.078;2023-07-31T05:05:49;11.02;;;9.50;;
20014;SDS011;61787;42.022;23.078;2023-07-31T05:06:51;12.30;;;9.10;;
20014;SDS011;61787;42.022;23.078;2023-07-31T05:07:53;12.07;;;9.48;;
20014;SDS011;61787;42.022;23.078;2023-07-31T05:08:54;12.18;;;9.68;;
20014;SDS011;61787;42.022;23.078;2023-07-31T05:09:56;10.52;;;9.43;;
20014;SDS011;61787;42.022;23.078;2023-07-31T05:10:59;10.95;;;9.57;;
20014;SDS011;61787;42.022;23.078;2023-07-31T05:12:00;11.73;;;8.75;;
20014;SDS011;61787;42.022;23.078;2023-07-31T05:13:02;11.93;;;9.75;;
20014;SDS011;61787;42.022;23.078;2023-07-31T05:14:03;11.48;;;9.93;;
20014;SDS011;61787;42.022;23.078;2023-07-31T05:15:07;9.57;;;8.57;;
20014;SDS011;61787;42.022;23.078;2023-07-31T05:16:17;10.00;;;8.93;;
20014;SDS011;61787;42.022;23.078;2023-07-31T05:17:19;11.05;;;9.18;;
20014;SDS011;61787;42.022;23.078;2023-07-31T05:18:20;13.73;;;9.95;;
20014;SDS011;61787;42.022;23.078;2023-07-31T05:19:22;38.15;;;11.73;;
20014;SDS011;61787;42.022;23.078;2023-07-31T05:20:24;14.10;;;10.25;;
20014;SDS011;61787;42.022;23.078;2023-07-31T05:21:25;13.07;;;10.27;;
20014;SDS011;61787;42.022;23.078;2023-07-31T05:22:27;11.32;;;9.73;;
20014;SDS011;61787;42.022;23.078;2023-07-31T05:23:28;11.20;;;10.05;;
20014;SDS011;61787;42.022;23.078;2023-07-31T05:24:32;19.95;;;12.00;;
20014;SDS011;61787;42.022;23.078;2023-07-31T05:25:34;13.35;;;11.13;;
20014;SDS011;61787;42.022;23.078;2023-07-31T05:26:36;13.73;;;10.88;;
20014;SDS011;61787;42.022;23.078;2023-07-31T05:27:39;17.52;;;13.73;;
20014;SDS011;61787;42.022;23.078;2023-07-31T05:28:41;14.63;;;11.85;;
20014;SDS011;61787;42.022;23.078;2023-07-31T05:29:42;16.50;;;12.40;;
20014;SDS011;61787;42.022;23.078;2023-07-31T05:30:44;20.00;;;15.20;;
20014;SDS011;61787;42.022;23.078;2023-07-31T05:31:46;21.92;;;15.45;;
20014;SDS011;61787;42.022;23.078;2023-07-31T05:32:48;19.17;;;13.18;;
20014;SDS011;61787;42.022;23.078;2023-07-31T05:33:50;14.10;;;12.60;;
20014;SDS011;61787;42.022;23.078;2023-07-31T05:34:52;24.05;;;15.88;;
20014;SDS011;61787;42.022;23.078;2023-07-31T05:35:54;22.48;;;15.50;;
20014;SDS011;61787;42.022;23.078;2023-07-31T05:36:56;21.88;;;15.60;;
20014;SDS011;61787;42.022;23.078;2023-07-31T05:37:57;18.08;;;14.48;;
20014;SDS011;61787;42.022;23.078;2023-07-31T05:38:59;17.15;;;13.27;;
20014;SDS011;61787;42.022;23.078;2023-07-31T05:40:01;17.17;;;14.07;;
20014;SDS011;61787;42.022;23.078;2023-07-31T05:41:02;17.77;;;14.20;;
20014;SDS011;61787;42.022;23.078;2023-07-31T05:42:04;20.15;;;15.93;;
20014;SDS011;61787;42.022;23.078;2023-07-31T05:43:06;17.17;;;14.40;;
20014;SDS011;61787;42.022;23.078;2023-07-31T05:44:09;19.30;;;15.00;;
20014;SDS011;61787;42.022;23.078;2023-07-31T05:45:11;22.38;;;17.08;;
20014;SDS011;61787;42.022;23.078;2023-07-31T05:46:14;17.15;;;15.35;;
20014;SDS011;61787;42.022;23.078;2023-07-31T05:47:16;19.75;;;15.65;;
20014;SDS011;61787;42.022;23.078;2023-07-31T05:48:18;21.05;;;16.48;;
20014;SDS011;61787;42.022;23.078;2023-07-31T05:49:19;19.23;;;16.05;;
20014;SDS011;61787;42.022;23.078;2023-07-31T05:50:21;19.65;;;15.68;;
20014;SDS011;61787;42.022;23.078;2023-07-31T05:51:23;20.55;;;17.60;;
20014;SDS011;61787;42.022;23.078;2023-07-31T05:52:24;20.13;;;16.27;;
20014;SDS011;61787;42.022;23.078;2023-07-31T05:53:26;22.92;;;17.55;;
20014;SDS011;61787;42.022;23.078;2023-07-31T05:54:28;17.95;;;16.15;;
20014;SDS011;61787;42.022;23.078;2023-07-31T05:55:29;22.08;;;18.20;;
20014;SDS011;61787;42.022;23.078;2023-07-31T05:56:34;20.63;;;16.60;;
20014;SDS011;61787;42.022;23.078;2023-07-31T05:57:36;18.75;;;16.70;;
20014;SDS011;61787;42.022;23.078;2023-07-31T05:58:38;26.08;;;18.73;;
20014;SDS011;61787;42.022;23.078;2023-07-31T05:59:39;20.13;;;17.98;;
20014;SDS011;61787;42.022;23.078;2023-07-31T06:00:41;21.60;;;17.83;;
20014;SDS011;61787;42.022;23.078;2023-07-31T06:01:43;21.88;;;17.90;;
20014;SDS011;61787;42.022;23.078;2023-07-31T06:02:44;23.45;;;18.35;;
20014;SDS011;61787;42.022;23.078;2023-07-31T06:03:46;20.80;;;18.58;;
20014;SDS011;61787;42.022;23.078;2023-07-31T06:04:48;22.00;;;19.65;;
20014;SDS011;61787;42.022;23.078;2023-07-31T06:05:50;21.52;;;17.83;;
20014;SDS011;61787;42.022;23.078;2023-07-31T06:06:52;25.05;;;18.52;;
20014;SDS011;61787;42.022;23.078;2023-07-31T06:07:53;19.92;;;17.52;;
20014;SDS011;61787;42.022;23.078;2023-07-31T06:08:55;19.10;;;17.08;;
20014;SDS011;61787;42.022;23.078;2023-07-31T06:09:57;21.15;;;18.48;;
20014;SDS011;61787;42.022;23.078;2023-07-31T06:11:04;25.25;;;19.15;;
20014;SDS011;61787;42.022;23.078;2023-07-31T06:12:06;20.10;;;18.00;;
20014;SDS011;61787;42.022;23.078;2023-07-31T06:13:08;23.95;;;19.75;;
20014;SDS011;61787;42.022;23.078;2023-07-31T06:14:10;24.55;;;20.35;;
20014;SDS011;61787;42.022;23.078;2023-07-31T06:15:12;20.25;;;18.15;;